Benjamín Fernández

Recruteur en chef - Talleres
5 Août 2027
Jeudi
Processus

Personnalité

Adaptabilité (4) Ambition (10) Controverse (16) Loyauté (1) Pression (18) Professionnalisme (14) Sportivité (20) Tempérament (5)

Profil

Style d'entraînement Démocratique
Diplôme National A
Détermination 13
Gestion des joueurs 6
Motivation 6
Discipline 5
Satisfaction professionnelle
57%
Fatigue
0%
Rôle Recruteur en chef
Salaire 16.8K p/s
Contrat 14.03.2028

Performance

Comportement Bon
Efficacité de l'entraînement
34%
Développement des joueurs
35%
Prévention des blessures
65%
Mise en place tactique
60%

Événements récents

A participé à une réunion de recrutement maintenant
A recommandé une cible de transfert maintenant
A recommandé une cible de transfert maintenant
A recommandé une cible de transfert maintenant
A recommandé une cible de transfert maintenant
A recommandé une cible de transfert maintenant
A évalué un joueur 7j
A évalué un joueur 7j

Suivi en cours

200
Joueur Club Statut Capacité Confiance Observé Dernière observation Dernier vote
Ferland Mendy Real Madrid Actif 145 / 146 40% 8 04.08.2027 -
Lucas Da Cunha Como Actif 145 / 143 40% 7 04.08.2027 -
Nadir Zortea Bologna Actif 138 / 129 40% 6 04.08.2027 -
Raoul Bellanova Atalanta Actif 154 / 163 40% 5 03.08.2027 -
Nicolò Rovella Lazio Actif 155 / 165 40% 2 03.08.2027 -
Josh Tymon Swansea City Actif 122 / 132 40% 1 03.08.2027 -
André-Franck Zambo Anguissa Napoli Actif 165 / 150 40% 17 31.07.2027 Observer
Manu Koné AS Roma Actif 166 / 161 40% 10 31.07.2027 -
Guille Rosas Gijón Actif 139 / 137 40% 3 31.07.2027 -
Pervis Estupiñán AC Milan Actif 151 / 135 40% 7 29.07.2027 -
Mattia Viti Sampdoria Actif 136 / 124 40% 2 29.07.2027 -
Trevoh Chalobah Como Actif 164 / 144 40% 1 29.07.2027 -
Arthur Atta Fiorentina Actif 142 / 150 40% 6 28.07.2027 -
Ollie Scarles West Ham United Actif 129 / 136 40% 4 27.07.2027 -
Alessandro Buongiorno Cagliari Actif 163 / 163 40% 6 27.07.2027 -
Brodie Spencer Oxford United Actif 131 / 130 40% 3 27.07.2027 -
Filippo Ranocchia Palermo Actif 139 / 135 40% 5 26.07.2027 -
Tim Iroegbunam Hull City Actif 136 / 148 40% 4 25.07.2027 -
Mitchel Bakker Modena Actif 136 / 119 40% 3 25.07.2027 -
Matteo Lovato Padova Actif 133 / 122 40% 1 25.07.2027 -
Enrico Delprato Parma Actif 136 / 139 40% 4 23.07.2027 -
Jordan Zemura Udinese Actif 134 / 134 40% 2 23.07.2027 -
Alessio Romagnoli Lazio Actif 153 / 147 40% 5 22.07.2027 -
Sebastiano Luperto Cremonese Actif 132 / 150 40% 1 22.07.2027 -
Florian Grillitsch Frosinone Actif 133 / 137 40% 2 21.07.2027 -
Nazareno Bazán Vera Almirante Brown Actif 110 / 110 30% 1 / 1m 21.07.2027 -
Tomás Muro Independiente Rivadavia Actif 115 / 115 30% 1 / 1m 21.07.2027 -
Ivan Giraldo Valencia Actif 123 / 118 40% 1 21.07.2027 -
Adrián Bernabé Parma Actif 145 / 141 40% 2 20.07.2027 -
Tomás Ribeiro Cultural Leonesa Actif 125 / 133 40% 4 19.07.2027 -
Pietro Ceccaroni Palermo Actif 133 / 123 40% 2 19.07.2027 -
Gerard Martín Barcelona Actif 159 / 148 40% 1 19.07.2027 -
Scott McTominay Napoli Actif 175 / 177 40% 12 17.07.2027 -
Andrea Ciofi Cesena Actif 121 / 135 40% 4 16.07.2027 -
Giuseppe Pezzella Cremonese Actif 133 / 140 40% 1 11.07.2027 -
Mehdi Dorval Catanzaro Actif 134 / 138 40% 2 07.07.2027 -
Lucas Blondel Boca Juniors Actif 111 / 105 79% 1 05.07.2027 Approuver
Issa Kaboré Wrexham Actif 132 / 132 40% 5 03.07.2027 -
Lewis Ferguson Bologna Actif 144 / 132 40% 4 03.07.2027 -
Pedro Porro Tottenham Actif 159 / 163 40% 3 02.07.2027 -
Nuno Tavares Lazio Actif 145 / 145 40% 3 28.06.2027 -
Evan N'Dicka AS Roma Actif 162 / 167 40% 7 26.06.2027 -
Marc Cucurella Real Madrid Actif 151 / 155 40% 1 23.06.2027 -
Andrea Carboni Monza Actif 138 / 122 40% 2 18.06.2027 -
Thierry Rendall Correia Venezia Actif 140 / 142 40% 3 16.06.2027 -
Billy Gilmour Napoli Actif 146 / 159 40% 1 16.06.2027 -
Rolando Mandragora Torino Actif 151 / 157 40% 2 10.06.2027 -
Joaquín Ardaiz Defensores Actif 128 / 128 52% 1 / 1m 09.06.2027 -
Hernán Perrone Almirante Brown Actif 108 / 108 42% 1 / 1m 09.06.2027 -
Assane Diao Como Actif 140 / 160 40% 1 02.06.2027 -
Mauro Luna Diale Akhmat Grozny Actif 117 / 117 65% 1 01.06.2027 Approuver
Luciano Pascual Godoy Cruz Actif 108 / 121 79% 1 01.06.2027 Approuver
Lorenzo Colombo Genoa Actif 145 / 126 40% 1 31.05.2027 -
João Cancelo Spartak Moscow Actif 149 / 154 40% 7 16.05.2027 -
Diego Gómez Brighton Actif 138 / 147 40% 3 11.05.2027 -
Jordan Lotomba Bloemfontein Celtic Actif 119 / 132 40% 3 09.05.2027 -
Gianluca Mancini AS Roma Actif 158 / 161 40% 2 08.05.2027 -
Juan Cruz Cerrudo Chaco For Ever Actif 111 / 114 30% 1 / 1m 21.04.2027 -
Oscar Belinetz Agropecuario Argentino Actif 110 / 110 30% 1 / 1m 21.04.2027 -
Carlos Augusto Inter Actif 156 / 147 40% 1 20.04.2027 -
Luke Shaw Lokomotiv Moscow Actif 151 / 164 40% 3 02.04.2027 -
Will Hughes Bloemfontein Celtic Actif 127 / 129 40% 2 02.04.2027 -
Morgan Billiat SuperSport United Actif 124 / 115 40% 8 31.03.2027 -
Teboho Mokoena Mamelodi Sundowns Actif 130 / 132 40% 2 30.03.2027 -
Milan van Ewijk Coventry City Actif 132 / 139 40% 3 27.03.2027 -
Tino Livramento Newcastle United Actif 153 / 146 40% 3 27.03.2027 -
Olivier Boscagli Brighton Actif 146 / 154 40% 2 27.03.2027 -
Xaver Schlager Nottingham Forest Actif 154 / 145 40% 5 26.03.2027 -
Aaron Hickey Brentford Actif 143 / 158 40% 1 26.03.2027 -
Yehor Yarmoliuk Brentford Actif 141 / 156 40% 2 25.03.2027 -
Óscar Mingueza Crystal Palace Actif 143 / 141 40% 6 25.03.2027 -
Alex Scott Bournemouth Actif 152 / 146 40% 1 25.03.2027 -
Florentino Luís Ipswich Town Actif 146 / 133 40% 3 21.03.2027 -
Amadou Onana Aston Villa Actif 150 / 156 40% 5 21.03.2027 -
Kenny Tete Fulham Actif 146 / 153 40% 1 20.03.2027 -
Lewis Hall Newcastle United Actif 152 / 142 40% 4 19.03.2027 -
Harry Clarke Preston Actif 124 / 125 40% 3 17.03.2027 -
Leon Goretzka Aston Villa Actif 151 / 147 40% 3 17.03.2027 -
Dara O'Shea Ipswich Town Actif 140 / 141 40% 8 16.03.2027 -
Quinten Timber Crystal Palace Actif 153 / 143 40% 1 16.03.2027 -
Nico González Newcastle United Actif 155 / 149 40% 1 13.03.2027 -
Max Johnston Derby County Actif 128 / 120 40% 2 11.03.2027 -
Ethan Ampadu Leeds United Actif 143 / 136 40% 1 11.03.2027 -
Nordi Mukiele Sunderland Actif 152 / 138 40% 3 08.03.2027 -
Gustavo Hamer Sheffield United Actif 134 / 143 40% 2 06.03.2027 -
Luke McNally Bristol City Actif 124 / 139 40% 1 05.03.2027 -
Jarrad Branthwaite Everton Actif 151 / 156 40% 3 04.03.2027 -
Max Bird Birmingham Actif 133 / 129 40% 2 04.03.2027 -
James Garner Everton Actif 149 / 157 40% 2 01.03.2027 -
Nathan Collins Brentford Actif 146 / 152 40% 1 28.02.2027 -
Boubacar Kamara Aston Villa Actif 160 / 149 40% 3 26.02.2027 -
Sven Botman Newcastle United Actif 153 / 156 40% 1 24.02.2027 -
Jacob Greaves Ipswich Town Actif 134 / 136 40% 5 23.02.2027 -
Welington Southampton Actif 134 / 116 40% 2 21.02.2027 -
Tyler Adams Bournemouth Actif 147 / 157 40% 2 13.02.2027 -
Juanlu Bournemouth Actif 145 / 153 40% 1 07.02.2027 -
Adam Wharton Crystal Palace Actif 152 / 147 40% 1 06.02.2027 -
Tijjani Reijnders Al-Qadisiyah Actif 153 / 150 40% 1 05.02.2027 -
Sergej Milinković-Savić Al-Hilal Actif 160 / 158 40% 2 29.01.2027 -
Hidemasa Morita Hull City Actif 150 / 141 40% 2 24.01.2027 -
Álex Centelles Levski Actif 123 / 122 40% 2 24.01.2027 -
Jacques Ekomié Wrexham Actif 125 / 127 40% 1 23.01.2027 -
Christian Nørgaard Everton Actif 142 / 147 40% 1 23.01.2027 -
Azor Matusiwa Ipswich Town Actif 141 / 124 40% 3 22.01.2027 -
Atsuki Ito Bolton Wanderers Actif 121 / 119 40% 1 20.01.2027 -
Habib Diarra Sunderland Actif 135 / 153 40% 1 20.01.2027 -
Nobel Mendy Hull City Actif 136 / 137 40% 1 17.01.2027 -
Matthew Targett Hull City Actif 136 / 138 40% 1 12.01.2027 -
Bosun Lawal Stoke City Actif 134 / 119 40% 1 12.01.2027 -
Reinildo Sunderland Actif 151 / 155 40% 1 07.01.2027 -
Toni Fruk Anderlecht Négociation 132 / 133 66% 1 01.12.2026 Approuver
Stanislav Agkatsev Brentford Négociation 132 / 133 66% 1 01.12.2026 Approuver
Dominic Calvert-Lewin Leeds United Actif 137 / 151 40% 1 01.12.2026 -
Martín Ojeda Orlando City Actif 134 / 130 40% 2 30.11.2026 -
Sławomir Abramowicz Jagiellonia Actif 121 / 121 40% 2 28.11.2026 -
Mike Maignan AC Milan Actif 167 / 166 40% 4 27.11.2026 -
Christian Walton Ipswich Town Actif 125 / 119 40% 3 26.11.2026 -
Dean Henderson Crystal Palace Actif 146 / 149 40% 4 26.11.2026 -
Pedrinho Shakhtar Actif 130 / 120 40% 1 26.11.2026 -
Ezequiel Centurión River Plate Actif 129 / 128 40% 5 25.11.2026 -
Rodrigo Morínigo Debrecen Actif 119 / 122 40% 7 25.11.2026 -
James Trafford Leeds United Actif 145 / 128 40% 4 25.11.2026 -
Nicolás Sumavil Platense Actif 122 / 125 40% 1 23.11.2026 -
Dayne St. Clair Inter Miami CF Actif 120 / 118 40% 4 22.11.2026 -
Josh Keeley Luton Town Actif 118 / 134 40% 1 22.11.2026 -
Nelson Insfrán Gimnasia La Plata Actif 120 / 120 40% 4 21.11.2026 -
Nathan Trott Cardiff City Actif 123 / 119 40% 3 21.11.2026 -
Marco Carnesecchi Atalanta Actif 152 / 146 40% 1 19.11.2026 -
Alex Meret Napoli Actif 147 / 141 40% 2 18.11.2026 Plus d'infos
Zion Suzuki Aston Villa Actif 137 / 132 40% 1 18.11.2026 -
Justin Hammel Grasshopper Actif 125 / 118 40% 1 17.11.2026 -
Radek Vítek Middlesbrough Actif 134 / 126 40% 5 15.11.2026 -
Robin Roefs Sunderland Actif 144 / 149 40% 5 13.11.2026 -
Matt Freese New York City Actif 125 / 120 40% 4 12.11.2026 -
Grégoire Coudert Burnley Actif 126 / 115 40% 2 12.11.2026 -
Balázs Tóth Blackburn Rovers Actif 133 / 120 40% 1 12.11.2026 -
Felipe Zenobio Tigre Actif 127 / 136 40% 4 07.11.2026 -
Angus Gunn San Jose Earthquakes Actif 116 / 114 40% 4 07.11.2026 -
José Devecchi San Lorenzo Actif 114 / 119 40% 5 05.11.2026 -
Matías Budiño Colón Actif 122 / 125 40% 3 05.11.2026 -
Ethan Galbraith Swansea City Actif 129 / 120 40% 1 05.11.2026 -
Manuel Roffo Hajduk Split Actif 127 / 117 40% 5 01.11.2026 -
Renato Solís Sporting Cristal Actif 120 / 125 40% 4 30.10.2026 -
Zack Steffen Colorado Rapids Actif 129 / 137 40% 6 27.10.2026 -
Alexander Nübel Besiktas Actif 142 / 138 40% 2 26.10.2026 -
Majid Jahanbakhsh Rah Ahan Actif 130 / 120 40% 1 25.10.2026 -
Ángel Correa River Plate Actif 143 / 132 40% 1 25.10.2026 -
Alan Lescano Argentinos Juniors Actif 131 / 123 40% 1 25.10.2026 -
Matías Tagliamonte Racing Club Actif 118 / 122 40% 4 23.10.2026 -
Anthony Patterson Wrexham Actif 133 / 141 40% 1 22.10.2026 -
Lucas Acosta Aldosivi Actif 119 / 120 40% 6 19.10.2026 -
Drake Callender Minnesota United FC Actif 124 / 136 40% 6 19.10.2026 -
Roberto Ramírez Godoy Cruz Actif 123 / 107 40% 3 18.10.2026 -
Luis Ingolotti Atlético Tucumán Actif 122 / 124 40% 5 16.10.2026 -
Diego Enríquez Sporting Cristal Actif 131 / 131 40% 3 13.10.2026 -
Rubén Blanco Yokohama F. Marinos Actif 124 / 126 40% 3 09.10.2026 -
Kein Sato FC Tokyo Actif 132 / 132 40% 1 09.10.2026 -
Julián Quiñones Al-Qadisiyah Actif 149 / 132 40% 1 09.10.2026 -
Carlos Moreno Pachuca Actif 133 / 139 40% 4 08.10.2026 -
Efrain Dos Santos Veracruz Actif 128 / 139 40% 1 08.10.2026 -
Álex Remiro KAA Gent Actif 143 / 143 40% 3 05.10.2026 -
Carlos Acevedo Santos Laguna Actif 134 / 123 40% 4 04.10.2026 -
Luis Romo Guadalajara Actif 134 / 132 40% 2 02.10.2026 -
Manu Morlanes Mallorca Actif 132 / 134 40% 1 02.10.2026 -
Alan Cervantes Club America Actif 130 / 138 40% 1 02.10.2026 -
Morgan Guilavogui Real Salt Lake Actif 131 / 130 40% 1 02.10.2026 -
Jesús Angulo Tigres Actif 131 / 142 40% 1 01.10.2026 -
Brian Gutiérrez Guadalajara Actif 122 / 127 40% 1 01.10.2026 -
Tomoki Hayakawa Kashima Antlers Actif 144 / 134 40% 3 30.09.2026 -
Diego Romero Universitario Actif 121 / 115 40% 5 25.09.2026 -
Franco Petroli Lanús Actif 124 / 126 40% 4 25.09.2026 -
Roman Celentano FC Cincinnati Actif 111 / 123 40% 2 23.09.2026 -
Erik Lira Cruz Azul Actif 137 / 131 40% 3 22.09.2026 -
Franco Romero Toluca Actif 123 / 132 40% 1 22.09.2026 -
Andrés Gudiño Cruz Azul Actif 126 / 130 40% 3 19.09.2026 -
Lucas Bergström Union Berlin Actif 123 / 131 40% 2 18.09.2026 -
Jorge Sánchez Atlas Actif 134 / 121 40% 2 18.09.2026 -
Eduardo Darias Penarol Actif 133 / 120 40% 1 18.09.2026 -
Felipe Valencia Cortulua Actif 133 / 122 40% 2 17.09.2026 -
Brian Rodríguez Club America Actif 132 / 123 40% 1 17.09.2026 -
Richard Ledezma Guadalajara Actif 128 / 138 40% 1 17.09.2026 -
Carlos Rodríguez Cruz Azul Actif 137 / 133 40% 2 15.09.2026 -
Fernando Gorriarán Tigres Actif 137 / 141 40% 2 15.09.2026 -
Patrick Schulte Columbus Crew Actif 128 / 111 40% 2 10.09.2026 -
Nicolás Campisi Sportivo Luqueno Actif 119 / 121 40% 3 07.09.2026 -
Sebastián Córdova Pumas UNAM Actif 128 / 126 40% 2 07.09.2026 -
Sergi Cardona KAA Gent Actif 146 / 133 40% 1 06.09.2026 -
Álex Berenguer Lokomotiv Moscow Actif 146 / 156 40% 1 06.09.2026 -
Ryosuke Kojima Kashiwa Reysol Actif 134 / 130 40% 1 01.09.2026 -
Ignacio Arce Deportivo Riestra Actif 134 / 134 30% 1 / 1m 26.08.2026 -
Myrto Uzuni Austin FC Actif 125 / 127 40% 1 23.08.2026 -
Alexandr Maximenko Spartak Moscow Actif 124 / 126 40% 1 20.08.2026 -
Víctor Guzmán Toluca Actif 122 / 125 40% 2 19.08.2026 -
Keisuke Osako Sanfrecce Hiroshima Actif 136 / 133 40% 1 19.08.2026 -
Carlos Rotondi Cruz Azul Actif 128 / 118 40% 1 17.08.2026 -
Petar Musa FC Dallas Actif 135 / 123 40% 1 16.08.2026 -
Ricardo Horta Braga Actif 152 / 146 40% 1 16.08.2026 -
Bryan González Guadalajara Actif 134 / 126 40% 1 13.08.2026 -
Diego Lainez Tigres Actif 131 / 122 40% 2 11.08.2026 -
Gerardo Arteaga Monterrey Actif 136 / 138 40% 1 06.08.2026 -